sensor_id;sensor_type;location;lat;lon;timestamp;P1;durP1;ratioP1;P2;durP2;ratioP2
40322;SDS011;26030;51.164;17.100;2024-02-16T00:00:14;27.00;;;17.10;;
40322;SDS011;26030;51.164;17.100;2024-02-16T00:05:40;25.90;;;17.20;;
40322;SDS011;26030;51.164;17.100;2024-02-16T00:10:45;26.10;;;16.90;;
40322;SDS011;26030;51.164;17.100;2024-02-16T00:15:49;24.00;;;16.40;;
40322;SDS011;26030;51.164;17.100;2024-02-16T00:20:54;23.80;;;16.30;;
40322;SDS011;26030;51.164;17.100;2024-02-16T00:25:59;23.20;;;15.40;;
40322;SDS011;26030;51.164;17.100;2024-02-16T00:31:03;22.80;;;15.80;;
40322;SDS011;26030;51.164;17.100;2024-02-16T00:36:09;19.90;;;14.10;;
40322;SDS011;26030;51.164;17.100;2024-02-16T00:41:22;26.30;;;15.60;;
40322;SDS011;26030;51.164;17.100;2024-02-16T00:46:27;22.00;;;15.40;;
40322;SDS011;26030;51.164;17.100;2024-02-16T00:51:31;20.50;;;14.30;;
40322;SDS011;26030;51.164;17.100;2024-02-16T00:56:35;21.20;;;14.30;;
40322;SDS011;26030;51.164;17.100;2024-02-16T01:01:40;18.60;;;13.80;;
40322;SDS011;26030;51.164;17.100;2024-02-16T01:06:45;17.60;;;13.50;;
40322;SDS011;26030;51.164;17.100;2024-02-16T01:11:50;20.50;;;14.80;;
40322;SDS011;26030;51.164;17.100;2024-02-16T01:16:54;17.00;;;12.40;;
40322;SDS011;26030;51.164;17.100;2024-02-16T01:21:59;17.50;;;13.50;;
40322;SDS011;26030;51.164;17.100;2024-02-16T01:27:05;19.00;;;13.40;;
40322;SDS011;26030;51.164;17.100;2024-02-16T01:32:09;21.10;;;14.60;;
40322;SDS011;26030;51.164;17.100;2024-02-16T01:37:14;14.80;;;12.20;;
40322;SDS011;26030;51.164;17.100;2024-02-16T01:42:26;16.40;;;12.60;;
40322;SDS011;26030;51.164;17.100;2024-02-16T01:52:34;16.90;;;12.20;;
40322;SDS011;26030;51.164;17.100;2024-02-16T01:57:43;16.10;;;12.60;;
40322;SDS011;26030;51.164;17.100;2024-02-16T02:02:47;18.50;;;12.70;;
40322;SDS011;26030;51.164;17.100;2024-02-16T02:07:52;17.80;;;12.50;;
40322;SDS011;26030;51.164;17.100;2024-02-16T02:12:57;15.00;;;11.40;;
40322;SDS011;26030;51.164;17.100;2024-02-16T02:18:01;15.90;;;12.00;;
40322;SDS011;26030;51.164;17.100;2024-02-16T02:23:06;15.80;;;12.60;;
40322;SDS011;26030;51.164;17.100;2024-02-16T02:28:10;16.00;;;11.70;;
40322;SDS011;26030;51.164;17.100;2024-02-16T02:33:14;17.30;;;12.60;;
40322;SDS011;26030;51.164;17.100;2024-02-16T02:38:19;15.00;;;11.40;;
40322;SDS011;26030;51.164;17.100;2024-02-16T02:43:24;16.80;;;11.40;;
40322;SDS011;26030;51.164;17.100;2024-02-16T02:48:29;16.50;;;11.40;;
40322;SDS011;26030;51.164;17.100;2024-02-16T02:53:34;16.50;;;10.60;;
40322;SDS011;26030;51.164;17.100;2024-02-16T02:58:41;12.90;;;10.50;;
40322;SDS011;26030;51.164;17.100;2024-02-16T03:03:46;13.30;;;11.20;;
40322;SDS011;26030;51.164;17.100;2024-02-16T03:08:51;13.10;;;10.20;;
40322;SDS011;26030;51.164;17.100;2024-02-16T03:13:55;12.80;;;10.10;;
40322;SDS011;26030;51.164;17.100;2024-02-16T03:19:00;15.50;;;10.10;;
40322;SDS011;26030;51.164;17.100;2024-02-16T03:24:05;13.20;;;10.50;;
40322;SDS011;26030;51.164;17.100;2024-02-16T03:29:10;14.80;;;10.80;;
40322;SDS011;26030;51.164;17.100;2024-02-16T03:34:14;12.40;;;10.10;;
40322;SDS011;26030;51.164;17.100;2024-02-16T03:39:19;11.20;;;9.40;;
40322;SDS011;26030;51.164;17.100;2024-02-16T03:44:24;12.40;;;9.20;;
40322;SDS011;26030;51.164;17.100;2024-02-16T03:49:29;11.80;;;9.40;;
40322;SDS011;26030;51.164;17.100;2024-02-16T03:54:34;11.00;;;9.50;;
40322;SDS011;26030;51.164;17.100;2024-02-16T03:59:38;14.10;;;9.70;;
40322;SDS011;26030;51.164;17.100;2024-02-16T04:04:43;10.90;;;9.10;;
40322;SDS011;26030;51.164;17.100;2024-02-16T04:09:47;10.20;;;8.90;;
40322;SDS011;26030;51.164;17.100;2024-02-16T04:14:52;11.40;;;9.00;;
40322;SDS011;26030;51.164;17.100;2024-02-16T04:19:57;10.50;;;9.00;;
40322;SDS011;26030;51.164;17.100;2024-02-16T04:25:02;10.50;;;8.90;;
40322;SDS011;26030;51.164;17.100;2024-02-16T04:30:08;12.50;;;9.50;;
40322;SDS011;26030;51.164;17.100;2024-02-16T04:35:13;13.20;;;8.80;;
40322;SDS011;26030;51.164;17.100;2024-02-16T04:40:18;10.60;;;8.10;;
40322;SDS011;26030;51.164;17.100;2024-02-16T04:45:22;10.00;;;8.40;;
40322;SDS011;26030;51.164;17.100;2024-02-16T04:50:27;10.30;;;8.80;;
40322;SDS011;26030;51.164;17.100;2024-02-16T04:55:31;9.10;;;8.00;;
40322;SDS011;26030;51.164;17.100;2024-02-16T05:00:37;10.30;;;8.40;;
40322;SDS011;26030;51.164;17.100;2024-02-16T05:05:42;9.50;;;7.90;;
40322;SDS011;26030;51.164;17.100;2024-02-16T05:10:47;9.60;;;8.50;;
40322;SDS011;26030;51.164;17.100;2024-02-16T05:15:51;9.50;;;8.40;;
40322;SDS011;26030;51.164;17.100;2024-02-16T05:20:59;9.00;;;8.00;;
40322;SDS011;26030;51.164;17.100;2024-02-16T05:26:03;9.20;;;8.20;;
40322;SDS011;26030;51.164;17.100;2024-02-16T05:31:16;9.60;;;8.30;;
40322;SDS011;26030;51.164;17.100;2024-02-16T05:36:24;10.20;;;8.00;;
40322;SDS011;26030;51.164;17.100;2024-02-16T05:41:34;9.90;;;7.90;;
40322;SDS011;26030;51.164;17.100;2024-02-16T05:46:40;8.80;;;7.50;;
40322;SDS011;26030;51.164;17.100;2024-02-16T05:51:46;9.00;;;7.70;;
40322;SDS011;26030;51.164;17.100;2024-02-16T05:57:10;9.10;;;7.30;;
40322;SDS011;26030;51.164;17.100;2024-02-16T06:02:15;11.20;;;8.40;;
40322;SDS011;26030;51.164;17.100;2024-02-16T06:07:19;9.80;;;7.30;;
40322;SDS011;26030;51.164;17.100;2024-02-16T06:12:24;8.50;;;7.50;;
40322;SDS011;26030;51.164;17.100;2024-02-16T06:17:28;8.20;;;7.20;;
40322;SDS011;26030;51.164;17.100;2024-02-16T06:22:33;7.90;;;7.10;;
40322;SDS011;26030;51.164;17.100;2024-02-16T06:27:38;9.10;;;7.30;;
40322;SDS011;26030;51.164;17.100;2024-02-16T06:32:42;8.80;;;7.40;;
40322;SDS011;26030;51.164;17.100;2024-02-16T06:37:47;7.80;;;7.00;;
40322;SDS011;26030;51.164;17.100;2024-02-16T06:42:52;7.90;;;6.60;;
40322;SDS011;26030;51.164;17.100;2024-02-16T06:47:56;10.80;;;6.90;;
40322;SDS011;26030;51.164;17.100;2024-02-16T06:53:02;10.40;;;7.20;;
40322;SDS011;26030;51.164;17.100;2024-02-16T06:58:06;8.20;;;6.70;;
40322;SDS011;26030;51.164;17.100;2024-02-16T07:03:10;9.10;;;6.40;;
40322;SDS011;26030;51.164;17.100;2024-02-16T07:08:16;8.60;;;6.60;;
40322;SDS011;26030;51.164;17.100;2024-02-16T07:13:20;8.90;;;7.00;;
40322;SDS011;26030;51.164;17.100;2024-02-16T07:18:26;8.80;;;6.90;;
40322;SDS011;26030;51.164;17.100;2024-02-16T07:23:32;11.00;;;6.70;;
40322;SDS011;26030;51.164;17.100;2024-02-16T07:28:36;8.60;;;6.40;;
40322;SDS011;26030;51.164;17.100;2024-02-16T07:33:42;7.80;;;6.40;;
40322;SDS011;26030;51.164;17.100;2024-02-16T07:38:46;10.40;;;6.70;;
40322;SDS011;26030;51.164;17.100;2024-02-16T07:43:51;7.10;;;5.50;;
40322;SDS011;26030;51.164;17.100;2024-02-16T07:48:56;11.30;;;6.70;;
40322;SDS011;26030;51.164;17.100;2024-02-16T07:54:01;7.90;;;5.70;;
40322;SDS011;26030;51.164;17.100;2024-02-16T07:59:05;7.40;;;5.90;;
40322;SDS011;26030;51.164;17.100;2024-02-16T08:04:11;8.40;;;6.30;;
40322;SDS011;26030;51.164;17.100;2024-02-16T08:09:15;8.00;;;6.10;;
40322;SDS011;26030;51.164;17.100;2024-02-16T08:14:21;8.90;;;6.70;;
40322;SDS011;26030;51.164;17.100;2024-02-16T08:19:36;9.30;;;6.10;;
40322;SDS011;26030;51.164;17.100;2024-02-16T08:24:42;6.20;;;5.50;;
40322;SDS011;26030;51.164;17.100;2024-02-16T08:29:50;6.60;;;5.90;;
40322;SDS011;26030;51.164;17.100;2024-02-16T08:34:58;6.30;;;5.70;;
40322;SDS011;26030;51.164;17.100;2024-02-16T08:40:04;6.40;;;5.60;;
40322;SDS011;26030;51.164;17.100;2024-02-16T08:45:09;9.60;;;5.30;;
40322;SDS011;26030;51.164;17.100;2024-02-16T08:50:14;6.20;;;5.00;;
40322;SDS011;26030;51.164;17.100;2024-02-16T08:55:19;7.30;;;5.00;;
40322;SDS011;26030;51.164;17.100;2024-02-16T09:00:25;5.60;;;5.00;;
40322;SDS011;26030;51.164;17.100;2024-02-16T09:05:32;6.50;;;5.40;;
40322;SDS011;26030;51.164;17.100;2024-02-16T09:10:36;5.10;;;4.40;;
40322;SDS011;26030;51.164;17.100;2024-02-16T09:15:45;6.40;;;5.20;;
40322;SDS011;26030;51.164;17.100;2024-02-16T09:20:49;6.20;;;5.30;;
40322;SDS011;26030;51.164;17.100;2024-02-16T09:25:55;4.70;;;4.10;;
40322;SDS011;26030;51.164;17.100;2024-02-16T09:31:00;6.20;;;4.70;;
40322;SDS011;26030;51.164;17.100;2024-02-16T09:36:06;5.70;;;5.00;;
40322;SDS011;26030;51.164;17.100;2024-02-16T09:41:10;6.00;;;4.80;;
40322;SDS011;26030;51.164;17.100;2024-02-16T09:46:16;5.70;;;5.00;;
40322;SDS011;26030;51.164;17.100;2024-02-16T09:51:21;4.70;;;3.90;;
40322;SDS011;26030;51.164;17.100;2024-02-16T09:56:25;4.90;;;4.40;;
40322;SDS011;26030;51.164;17.100;2024-02-16T10:01:30;5.90;;;4.80;;
40322;SDS011;26030;51.164;17.100;2024-02-16T10:06:45;4.40;;;4.00;;
40322;SDS011;26030;51.164;17.100;2024-02-16T10:11:51;5.70;;;5.20;;
40322;SDS011;26030;51.164;17.100;2024-02-16T10:17:04;4.90;;;4.30;;
40322;SDS011;26030;51.164;17.100;2024-02-16T10:22:12;4.50;;;4.10;;
40322;SDS011;26030;51.164;17.100;2024-02-16T10:27:17;4.40;;;4.00;;
40322;SDS011;26030;51.164;17.100;2024-02-16T10:32:23;4.50;;;4.10;;
40322;SDS011;26030;51.164;17.100;2024-02-16T10:37:28;4.30;;;3.90;;
40322;SDS011;26030;51.164;17.100;2024-02-16T10:42:35;5.40;;;3.70;;
40322;SDS011;26030;51.164;17.100;2024-02-16T10:47:40;4.20;;;3.80;;
40322;SDS011;26030;51.164;17.100;2024-02-16T10:52:46;6.00;;;4.20;;
40322;SDS011;26030;51.164;17.100;2024-02-16T10:57:52;4.40;;;4.00;;
40322;SDS011;26030;51.164;17.100;2024-02-16T11:03:03;4.40;;;4.00;;
40322;SDS011;26030;51.164;17.100;2024-02-16T11:08:12;4.40;;;4.00;;
40322;SDS011;26030;51.164;17.100;2024-02-16T11:13:22;5.20;;;4.50;;
40322;SDS011;26030;51.164;17.100;2024-02-16T11:18:28;5.40;;;4.30;;
40322;SDS011;26030;51.164;17.100;2024-02-16T11:23:35;4.50;;;4.10;;
40322;SDS011;26030;51.164;17.100;2024-02-16T11:28:41;5.00;;;4.50;;
40322;SDS011;26030;51.164;17.100;2024-02-16T11:33:46;4.30;;;3.90;;
40322;SDS011;26030;51.164;17.100;2024-02-16T11:38:51;3.80;;;3.40;;
40322;SDS011;26030;51.164;17.100;2024-02-16T11:44:00;4.50;;;4.10;;
40322;SDS011;26030;51.164;17.100;2024-02-16T11:49:06;4.40;;;3.80;;
40322;SDS011;26030;51.164;17.100;2024-02-16T11:54:11;4.40;;;4.00;;
40322;SDS011;26030;51.164;17.100;2024-02-16T11:59:17;4.00;;;3.60;;
40322;SDS011;26030;51.164;17.100;2024-02-16T12:04:26;4.70;;;4.00;;
40322;SDS011;26030;51.164;17.100;2024-02-16T12:09:31;4.00;;;3.70;;
40322;SDS011;26030;51.164;17.100;2024-02-16T12:14:39;4.40;;;4.00;;
40322;SDS011;26030;51.164;17.100;2024-02-16T12:19:47;5.00;;;4.60;;
40322;SDS011;26030;51.164;17.100;2024-02-16T12:24:52;4.20;;;3.80;;
40322;SDS011;26030;51.164;17.100;2024-02-16T12:29:57;4.10;;;3.70;;
40322;SDS011;26030;51.164;17.100;2024-02-16T12:35:02;6.20;;;3.90;;
40322;SDS011;26030;51.164;17.100;2024-02-16T12:40:10;4.00;;;3.60;;
40322;SDS011;26030;51.164;17.100;2024-02-16T12:45:15;4.40;;;3.90;;
40322;SDS011;26030;51.164;17.100;2024-02-16T12:50:20;4.00;;;3.70;;
40322;SDS011;26030;51.164;17.100;2024-02-16T12:55:25;3.80;;;3.50;;
40322;SDS011;26030;51.164;17.100;2024-02-16T13:00:29;4.70;;;4.00;;
40322;SDS011;26030;51.164;17.100;2024-02-16T13:05:34;3.50;;;3.30;;
40322;SDS011;26030;51.164;17.100;2024-02-16T13:10:38;3.80;;;3.50;;
40322;SDS011;26030;51.164;17.100;2024-02-16T13:15:43;3.80;;;3.50;;
40322;SDS011;26030;51.164;17.100;2024-02-16T13:20:48;4.00;;;3.70;;
40322;SDS011;26030;51.164;17.100;2024-02-16T13:25:53;4.30;;;3.80;;
40322;SDS011;26030;51.164;17.100;2024-02-16T13:30:57;3.40;;;3.10;;
40322;SDS011;26030;51.164;17.100;2024-02-16T13:36:02;3.60;;;3.30;;
40322;SDS011;26030;51.164;17.100;2024-02-16T13:41:09;3.80;;;3.40;;
40322;SDS011;26030;51.164;17.100;2024-02-16T13:46:14;4.10;;;3.60;;
40322;SDS011;26030;51.164;17.100;2024-02-16T13:51:19;3.60;;;3.30;;
40322;SDS011;26030;51.164;17.100;2024-02-16T13:56:23;3.40;;;3.10;;
40322;SDS011;26030;51.164;17.100;2024-02-16T14:01:28;3.40;;;3.10;;
40322;SDS011;26030;51.164;17.100;2024-02-16T14:06:33;4.00;;;3.30;;
40322;SDS011;26030;51.164;17.100;2024-02-16T14:11:40;3.60;;;3.30;;
40322;SDS011;26030;51.164;17.100;2024-02-16T14:16:58;3.40;;;3.10;;
40322;SDS011;26030;51.164;17.100;2024-02-16T14:22:03;5.10;;;3.00;;
40322;SDS011;26030;51.164;17.100;2024-02-16T14:27:11;3.20;;;3.00;;
40322;SDS011;26030;51.164;17.100;2024-02-16T14:32:15;3.70;;;3.30;;
40322;SDS011;26030;51.164;17.100;2024-02-16T14:37:20;3.40;;;3.10;;
40322;SDS011;26030;51.164;17.100;2024-02-16T14:42:26;3.40;;;3.10;;
40322;SDS011;26030;51.164;17.100;2024-02-16T14:47:30;3.70;;;3.40;;
40322;SDS011;26030;51.164;17.100;2024-02-16T14:52:35;3.70;;;3.40;;
40322;SDS011;26030;51.164;17.100;2024-02-16T14:57:40;3.50;;;3.20;;
40322;SDS011;26030;51.164;17.100;2024-02-16T15:02:46;3.20;;;2.90;;
40322;SDS011;26030;51.164;17.100;2024-02-16T15:07:56;3.20;;;2.90;;
40322;SDS011;26030;51.164;17.100;2024-02-16T15:13:00;3.50;;;3.20;;
40322;SDS011;26030;51.164;17.100;2024-02-16T15:18:06;3.30;;;3.00;;
40322;SDS011;26030;51.164;17.100;2024-02-16T15:23:11;4.00;;;3.60;;
40322;SDS011;26030;51.164;17.100;2024-02-16T15:28:15;3.40;;;3.10;;
40322;SDS011;26030;51.164;17.100;2024-02-16T15:33:20;2.80;;;2.60;;
40322;SDS011;26030;51.164;17.100;2024-02-16T15:38:25;4.10;;;3.30;;
40322;SDS011;26030;51.164;17.100;2024-02-16T15:43:29;3.40;;;3.10;;
40322;SDS011;26030;51.164;17.100;2024-02-16T15:48:34;3.40;;;3.10;;
40322;SDS011;26030;51.164;17.100;2024-02-16T15:53:39;4.50;;;3.10;;
40322;SDS011;26030;51.164;17.100;2024-02-16T15:58:46;4.10;;;3.20;;
40322;SDS011;26030;51.164;17.100;2024-02-16T16:03:50;8.50;;;3.00;;
40322;SDS011;26030;51.164;17.100;2024-02-16T16:08:55;3.90;;;3.60;;
40322;SDS011;26030;51.164;17.100;2024-02-16T16:13:59;3.80;;;3.50;;
40322;SDS011;26030;51.164;17.100;2024-02-16T16:19:04;16.20;;;4.30;;
40322;SDS011;26030;51.164;17.100;2024-02-16T16:24:10;8.10;;;4.10;;
40322;SDS011;26030;51.164;17.100;2024-02-16T16:29:17;10.90;;;4.40;;
40322;SDS011;26030;51.164;17.100;2024-02-16T16:34:21;7.10;;;3.80;;
40322;SDS011;26030;51.164;17.100;2024-02-16T16:39:26;13.40;;;5.40;;
40322;SDS011;26030;51.164;17.100;2024-02-16T16:44:31;8.50;;;4.70;;
40322;SDS011;26030;51.164;17.100;2024-02-16T16:49:39;10.30;;;4.30;;
40322;SDS011;26030;51.164;17.100;2024-02-16T16:54:44;7.60;;;4.90;;
40322;SDS011;26030;51.164;17.100;2024-02-16T16:59:49;8.90;;;4.80;;
40322;SDS011;26030;51.164;17.100;2024-02-16T17:04:54;9.90;;;5.60;;
40322;SDS011;26030;51.164;17.100;2024-02-16T17:10:03;11.40;;;5.00;;
40322;SDS011;26030;51.164;17.100;2024-02-16T17:15:15;9.70;;;5.50;;
40322;SDS011;26030;51.164;17.100;2024-02-16T17:20:23;11.10;;;5.60;;
40322;SDS011;26030;51.164;17.100;2024-02-16T17:25:29;8.90;;;5.30;;
40322;SDS011;26030;51.164;17.100;2024-02-16T17:30:33;12.40;;;5.30;;
40322;SDS011;26030;51.164;17.100;2024-02-16T17:35:39;10.30;;;5.40;;
40322;SDS011;26030;51.164;17.100;2024-02-16T17:40:46;8.80;;;5.60;;
40322;SDS011;26030;51.164;17.100;2024-02-16T17:45:51;8.90;;;5.90;;
40322;SDS011;26030;51.164;17.100;2024-02-16T17:50:55;8.20;;;5.40;;
40322;SDS011;26030;51.164;17.100;2024-02-16T17:56:00;9.30;;;5.40;;
40322;SDS011;26030;51.164;17.100;2024-02-16T18:01:05;6.60;;;5.30;;
40322;SDS011;26030;51.164;17.100;2024-02-16T18:06:09;6.40;;;5.60;;
40322;SDS011;26030;51.164;17.100;2024-02-16T18:11:14;5.50;;;5.00;;
40322;SDS011;26030;51.164;17.100;2024-02-16T18:16:18;7.40;;;5.50;;
40322;SDS011;26030;51.164;17.100;2024-02-16T18:21:25;8.90;;;5.50;;
40322;SDS011;26030;51.164;17.100;2024-02-16T18:26:29;6.90;;;5.30;;
40322;SDS011;26030;51.164;17.100;2024-02-16T18:31:36;7.60;;;5.30;;
40322;SDS011;26030;51.164;17.100;2024-02-16T18:36:42;6.00;;;5.10;;
40322;SDS011;26030;51.164;17.100;2024-02-16T18:41:46;6.10;;;5.10;;
40322;SDS011;26030;51.164;17.100;2024-02-16T18:46:51;7.40;;;5.40;;
40322;SDS011;26030;51.164;17.100;2024-02-16T18:51:56;8.50;;;5.50;;
40322;SDS011;26030;51.164;17.100;2024-02-16T18:57:03;7.20;;;5.30;;
40322;SDS011;26030;51.164;17.100;2024-02-16T19:02:11;6.60;;;5.00;;
40322;SDS011;26030;51.164;17.100;2024-02-16T19:07:15;7.40;;;5.40;;
40322;SDS011;26030;51.164;17.100;2024-02-16T19:12:20;8.10;;;4.80;;
40322;SDS011;26030;51.164;17.100;2024-02-16T19:17:27;9.30;;;5.00;;
40322;SDS011;26030;51.164;17.100;2024-02-16T19:22:31;7.90;;;5.20;;
40322;SDS011;26030;51.164;17.100;2024-02-16T19:27:35;9.30;;;5.10;;
40322;SDS011;26030;51.164;17.100;2024-02-16T19:32:40;8.10;;;4.80;;
40322;SDS011;26030;51.164;17.100;2024-02-16T19:37:45;13.20;;;8.00;;
40322;SDS011;26030;51.164;17.100;2024-02-16T19:42:49;13.80;;;10.40;;
40322;SDS011;26030;51.164;17.100;2024-02-16T19:47:53;21.50;;;16.50;;
40322;SDS011;26030;51.164;17.100;2024-02-16T19:52:58;24.00;;;16.90;;
40322;SDS011;26030;51.164;17.100;2024-02-16T19:58:03;20.90;;;14.90;;
40322;SDS011;26030;51.164;17.100;2024-02-16T20:03:08;26.70;;;14.90;;
40322;SDS011;26030;51.164;17.100;2024-02-16T20:08:13;18.00;;;13.50;;
40322;SDS011;26030;51.164;17.100;2024-02-16T20:13:19;17.80;;;13.10;;
40322;SDS011;26030;51.164;17.100;2024-02-16T20:18:28;15.90;;;12.10;;
40322;SDS011;26030;51.164;17.100;2024-02-16T20:23:33;16.50;;;11.30;;
40322;SDS011;26030;51.164;17.100;2024-02-16T20:28:39;17.60;;;11.30;;
40322;SDS011;26030;51.164;17.100;2024-02-16T20:33:43;17.50;;;11.20;;
40322;SDS011;26030;51.164;17.100;2024-02-16T20:38:57;19.00;;;11.20;;
40322;SDS011;26030;51.164;17.100;2024-02-16T20:44:10;12.80;;;9.40;;
40322;SDS011;26030;51.164;17.100;2024-02-16T20:49:14;12.30;;;8.80;;
40322;SDS011;26030;51.164;17.100;2024-02-16T20:54:19;17.80;;;9.20;;
40322;SDS011;26030;51.164;17.100;2024-02-16T20:59:25;13.10;;;9.70;;
40322;SDS011;26030;51.164;17.100;2024-02-16T21:04:31;15.00;;;9.30;;
40322;SDS011;26030;51.164;17.100;2024-02-16T21:09:42;14.50;;;8.80;;
40322;SDS011;26030;51.164;17.100;2024-02-16T21:14:49;10.40;;;8.60;;
40322;SDS011;26030;51.164;17.100;2024-02-16T21:20:10;13.70;;;8.40;;
40322;SDS011;26030;51.164;17.100;2024-02-16T21:25:16;10.90;;;8.50;;
40322;SDS011;26030;51.164;17.100;2024-02-16T21:30:20;12.60;;;9.00;;
40322;SDS011;26030;51.164;17.100;2024-02-16T21:35:25;11.80;;;8.60;;
40322;SDS011;26030;51.164;17.100;2024-02-16T21:40:37;12.30;;;7.80;;
40322;SDS011;26030;51.164;17.100;2024-02-16T21:45:42;10.50;;;8.30;;
40322;SDS011;26030;51.164;17.100;2024-02-16T21:50:48;9.30;;;8.10;;
40322;SDS011;26030;51.164;17.100;2024-02-16T21:55:52;11.40;;;7.40;;
40322;SDS011;26030;51.164;17.100;2024-02-16T22:00:57;11.40;;;8.50;;
40322;SDS011;26030;51.164;17.100;2024-02-16T22:06:02;9.40;;;7.40;;
40322;SDS011;26030;51.164;17.100;2024-02-16T22:11:10;9.70;;;7.10;;
40322;SDS011;26030;51.164;17.100;2024-02-16T22:16:15;9.20;;;7.30;;
40322;SDS011;26030;51.164;17.100;2024-02-16T22:21:19;7.90;;;7.00;;
40322;SDS011;26030;51.164;17.100;2024-02-16T22:26:36;9.40;;;7.20;;
40322;SDS011;26030;51.164;17.100;2024-02-16T22:31:42;9.10;;;7.00;;
40322;SDS011;26030;51.164;17.100;2024-02-16T22:36:58;11.50;;;7.20;;
40322;SDS011;26030;51.164;17.100;2024-02-16T22:42:04;9.30;;;7.40;;
40322;SDS011;26030;51.164;17.100;2024-02-16T22:47:10;7.70;;;6.90;;
40322;SDS011;26030;51.164;17.100;2024-02-16T22:52:15;11.00;;;6.90;;
40322;SDS011;26030;51.164;17.100;2024-02-16T22:57:20;8.90;;;7.00;;
40322;SDS011;26030;51.164;17.100;2024-02-16T23:02:25;10.40;;;7.30;;
40322;SDS011;26030;51.164;17.100;2024-02-16T23:07:30;7.80;;;6.50;;
40322;SDS011;26030;51.164;17.100;2024-02-16T23:12:35;7.70;;;6.90;;
40322;SDS011;26030;51.164;17.100;2024-02-16T23:17:39;8.90;;;7.20;;
40322;SDS011;26030;51.164;17.100;2024-02-16T23:23:04;8.00;;;7.10;;
40322;SDS011;26030;51.164;17.100;2024-02-16T23:28:11;7.00;;;6.30;;
40322;SDS011;26030;51.164;17.100;2024-02-16T23:33:18;8.70;;;6.80;;
40322;SDS011;26030;51.164;17.100;2024-02-16T23:38:23;9.20;;;6.50;;
40322;SDS011;26030;51.164;17.100;2024-02-16T23:43:27;7.00;;;6.20;;
40322;SDS011;26030;51.164;17.100;2024-02-16T23:48:35;8.00;;;6.40;;
40322;SDS011;26030;51.164;17.100;2024-02-16T23:53:42;9.20;;;6.60;;
40322;SDS011;26030;51.164;17.100;2024-02-16T23:58:46;7.10;;;6.20;;
